Time;durP1;ratioP1;P1;durP2;ratioP2;P2;SDS_P1;SDS_P2;PMS_P1;PMS_P2;Temp;Humidity;BMP_temperature;BMP_pressure;BME280_temperature;BME280_humidity;BME280_pressure;Samples;Min_cycle;Max_cycle;Signal;HPM_P1;HPM_P2
2022/09/07 00:02:01;;;;;;;;;0.67;0.67;;;;;;;;5103955;27;61726;-75
2022/09/07 00:04:26;;;;;;;;;1.33;1.33;;;;;;;;5104574;27;61808;-75
2022/09/07 00:06:52;;;;;;;;;0.00;0.00;;;;;;;;5104974;27;61787;-75
2022/09/07 00:09:17;;;;;;;;;1.00;1.00;;;;;;;;5105566;27;62222;-75
2022/09/07 00:11:42;;;;;;;;;1.00;1.00;;;;;;;;5105485;27;62142;-75
2022/09/07 00:14:08;;;;;;;;;2.33;0.67;;;;;;;;5103460;27;62146;-75
2022/09/07 00:16:33;;;;;;;;;3.00;1.33;;;;;;;;5103434;27;63876;-75
2022/09/07 00:19:01;;;;;;;;;1.00;1.00;;;;;;;;5103421;27;61868;-75
2022/09/07 00:21:27;;;;;;;;;1.00;1.00;;;;;;;;5103870;27;61832;-75
2022/09/07 00:23:53;;;;;;;;;0.00;0.00;;;;;;;;5105345;27;61903;-75
2022/09/07 00:26:22;;;;;;;;;2.67;1.00;;;;;;;;5103072;27;64655;-75
2022/09/07 00:28:47;;;;;;;;;1.00;1.00;;;;;;;;5103075;27;61895;-75
2022/09/07 00:31:17;;;;;;;;;0.67;0.67;;;;;;;;5104997;27;61839;-75
2022/09/07 00:33:43;;;;;;;;;1.00;1.00;;;;;;;;5104071;27;62014;-75
2022/09/07 00:36:08;;;;;;;;;1.00;1.00;;;;;;;;5103025;27;63932;-74
2022/09/07 00:38:33;;;;;;;;;0.00;0.00;;;;;;;;5103595;27;61873;-75
2022/09/07 00:40:59;;;;;;;;;0.00;0.00;;;;;;;;5103678;27;61926;-74
2022/09/07 00:43:29;;;;;;;;;1.00;1.00;;;;;;;;5102955;27;61815;-75
2022/09/07 00:45:54;;;;;;;;;0.00;0.00;;;;;;;;5103243;27;64865;-75
2022/09/07 00:48:21;;;;;;;;;1.00;1.00;;;;;;;;5104668;27;61784;-75
2022/09/07 00:51:00;;;;;;;;;0.00;0.00;;;;;;;;5103476;27;61947;-75
2022/09/07 00:53:30;;;;;;;;;1.00;1.00;;;;;;;;5102725;27;61824;-75
2022/09/07 00:55:56;;;;;;;;;0.33;0.33;;;;;;;;5104230;27;61856;-75
2022/09/07 00:58:22;;;;;;;;;2.00;1.00;;;;;;;;5103905;27;61936;-75
2022/09/07 01:00:48;;;;;;;;;2.00;0.67;;;;;;;;5103034;27;62176;-75
2022/09/07 01:03:15;;;;;;;;;2.33;1.00;;;;;;;;5104716;27;61773;-75
2022/09/07 01:05:42;;;;;;;;;0.00;0.00;;;;;;;;5104027;27;61817;-74
2022/09/07 01:08:08;;;;;;;;;0.00;0.00;;;;;;;;5103000;27;61966;-75
2022/09/07 01:10:34;;;;;;;;;0.67;0.67;;;;;;;;5104489;27;61952;-75
2022/09/07 01:12:59;;;;;;;;;0.00;0.00;;;;;;;;5104023;27;61903;-75
2022/09/07 01:15:33;;;;;;;;;0.67;0.67;;;;;;;;5102127;27;63860;-75
2022/09/07 01:18:05;;;;;;;;;0.67;0.67;;;;;;;;5104151;27;62066;-75
2022/09/07 01:20:33;;;;;;;;;2.00;0.33;;;;;;;;5104236;27;61915;-75
2022/09/07 01:23:07;;;;;;;;;3.00;0.00;;;;;;;;5104091;27;61853;-76
2022/09/07 01:25:47;;;;;;;;;0.00;0.00;;;;;;;;5103209;27;61899;-75
2022/09/07 01:28:12;;;;;;;;;0.00;0.00;;;;;;;;5102498;27;62076;-75
2022/09/07 01:30:40;;;;;;;;;0.00;0.00;;;;;;;;5103763;27;61804;-75
2022/09/07 01:33:06;;;;;;;;;0.00;0.00;;;;;;;;5102618;27;61733;-75
2022/09/07 01:35:40;;;;;;;;;0.00;0.00;;;;;;;;5103069;27;62679;-75
2022/09/07 01:38:08;;;;;;;;;2.00;1.00;;;;;;;;5104068;27;61829;-75
2022/09/07 01:40:48;;;;;;;;;0.00;0.00;;;;;;;;5103466;27;61702;-75
2022/09/07 01:43:22;;;;;;;;;0.00;0.00;;;;;;;;5103987;27;61710;-75
2022/09/07 01:45:49;;;;;;;;;0.33;0.33;;;;;;;;5102092;27;63675;-75
2022/09/07 01:48:16;;;;;;;;;1.00;1.00;;;;;;;;5102510;27;61877;-75
2022/09/07 01:50:56;;;;;;;;;3.67;1.00;;;;;;;;5102530;27;61783;-75
2022/09/07 01:53:31;;;;;;;;;0.00;0.00;;;;;;;;5101920;27;61939;-75
2022/09/07 01:56:00;;;;;;;;;1.00;1.00;;;;;;;;5101483;27;63919;-75
2022/09/07 01:58:47;;;;;;;;;1.33;0.00;;;;;;;;5102023;27;61879;-75
2022/09/07 02:01:18;;;;;;;;;0.00;0.00;;;;;;;;5103773;27;61879;-75
2022/09/07 02:03:50;;;;;;;;;0.00;0.00;;;;;;;;5103606;27;61750;-75
2022/09/07 02:06:19;;;;;;;;;0.00;0.00;;;;;;;;5101631;27;65208;-75
2022/09/07 02:08:44;;;;;;;;;0.00;0.00;;;;;;;;5101983;27;61906;-75
2022/09/07 02:11:13;;;;;;;;;1.67;0.67;;;;;;;;5103249;27;61911;-75
2022/09/07 02:13:46;;;;;;;;;2.00;0.00;;;;;;;;5103236;27;61781;-75
2022/09/07 02:16:19;;;;;;;;;0.00;0.00;;;;;;;;5102691;27;61990;-75
2022/09/07 02:18:46;;;;;;;;;1.67;1.00;;;;;;;;5082785;27;62250;-75
2022/09/07 02:21:13;;;;;;;;;0.00;0.00;;;;;;;;5083007;27;61969;-75
2022/09/07 02:23:43;;;;;;;;;0.00;0.00;;;;;;;;5081034;28;61908;-75
2022/09/07 02:26:11;;;;;;;;;1.33;0.33;;;;;;;;5080906;28;64719;-75
2022/09/07 02:28:37;;;;;;;;;1.00;1.00;;;;;;;;5082366;27;61948;-74
2022/09/07 02:31:02;;;;;;;;;1.00;0.00;;;;;;;;5083025;27;62108;-75
2022/09/07 02:33:28;;;;;;;;;1.00;1.00;;;;;;;;5081201;28;61880;-75
2022/09/07 02:35:54;;;;;;;;;1.33;0.33;;;;;;;;5080893;28;64769;-75
2022/09/07 02:38:19;;;;;;;;;0.00;0.00;;;;;;;;5082556;27;62165;-75
2022/09/07 02:40:52;;;;;;;;;0.33;0.33;;;;;;;;5115443;27;61760;-75
2022/09/07 02:43:18;;;;;;;;;0.00;0.00;;;;;;;;5082616;27;61926;-75
2022/09/07 02:45:46;;;;;;;;;1.00;1.00;;;;;;;;5081873;28;63370;-75
2022/09/07 02:48:20;;;;;;;;;1.00;0.00;;;;;;;;5082525;27;62174;-75
2022/09/07 02:51:10;;;;;;;;;1.33;0.67;;;;;;;;5082534;27;61877;-75
2022/09/07 02:53:51;;;;;;;;;1.33;0.67;;;;;;;;5081956;27;61856;-75
2022/09/07 02:56:28;;;;;;;;;0.00;0.00;;;;;;;;5080731;28;63635;-75
2022/09/07 02:59:09;;;;;;;;;0.00;0.00;;;;;;;;5081984;27;61731;-75
2022/09/07 03:01:34;;;;;;;;;0.33;0.33;;;;;;;;5082119;27;61881;-75
2022/09/07 03:04:02;;;;;;;;;0.00;0.00;;;;;;;;5081200;28;62085;-75
2022/09/07 03:06:30;;;;;;;;;1.00;1.00;;;;;;;;5080454;28;64031;-75
2022/09/07 03:08:58;;;;;;;;;1.00;1.00;;;;;;;;5081752;27;62020;-75
2022/09/07 03:11:24;;;;;;;;;0.00;0.00;;;;;;;;5082277;27;61786;-75
2022/09/07 03:13:49;;;;;;;;;0.00;0.00;;;;;;;;5081743;27;62129;-75
2022/09/07 03:16:14;;;;;;;;;0.67;0.67;;;;;;;;5080143;27;64803;-75
2022/09/07 03:18:41;;;;;;;;;2.00;0.00;;;;;;;;5101111;27;61867;-75
2022/09/07 03:21:06;;;;;;;;;1.50;1.00;;;;;;;;5102912;27;61896;-75
2022/09/07 03:23:32;;;;;;;;;1.00;1.00;;;;;;;;5100778;27;61749;-76
2022/09/07 03:25:57;;;;;;;;;0.00;0.00;;;;;;;;5101906;27;62011;-76
2022/09/07 03:28:22;;;;;;;;;2.00;0.00;;;;;;;;5100697;27;61859;-75
2022/09/07 03:30:47;;;;;;;;;1.00;1.00;;;;;;;;5101065;27;62456;-75
2022/09/07 03:33:16;;;;;;;;;3.00;0.00;;;;;;;;5101350;27;62114;-75
2022/09/07 03:35:42;;;;;;;;;0.00;0.00;;;;;;;;5102000;27;62068;-76
2022/09/07 03:38:07;;;;;;;;;2.00;0.00;;;;;;;;5101994;27;61700;-76
2022/09/07 03:40:33;;;;;;;;;2.00;0.33;;;;;;;;5102329;27;61745;-76
2022/09/07 03:42:58;;;;;;;;;3.33;0.33;;;;;;;;5100583;27;62053;-75
2022/09/07 03:45:23;;;;;;;;;0.67;0.67;;;;;;;;5101744;27;62811;-75
2022/09/07 03:47:49;;;;;;;;;0.67;0.00;;;;;;;;5101932;27;62413;-75
2022/09/07 03:50:15;;;;;;;;;1.00;0.67;;;;;;;;5100945;27;61893;-75
2022/09/07 03:52:40;;;;;;;;;0.67;0.00;;;;;;;;5100493;27;61824;-75
2022/09/07 03:55:06;;;;;;;;;0.75;0.75;;;;;;;;5102746;27;61926;-75
2022/09/07 03:57:31;;;;;;;;;0.00;0.00;;;;;;;;5105785;27;62020;-76
2022/09/07 03:59:56;;;;;;;;;1.00;1.00;;;;;;;;5103751;27;61926;-76
2022/09/07 04:02:21;;;;;;;;;0.00;0.00;;;;;;;;5104309;27;61786;-76
2022/09/07 04:04:47;;;;;;;;;1.33;0.00;;;;;;;;5104608;27;61803;-77
2022/09/07 04:07:13;;;;;;;;;1.50;1.00;;;;;;;;5105220;27;62049;-76
2022/09/07 04:09:38;;;;;;;;;2.67;0.00;;;;;;;;5105826;27;61924;-76
2022/09/07 04:12:04;;;;;;;;;1.00;0.00;;;;;;;;5103978;27;62127;-76
2022/09/07 04:14:29;;;;;;;;;1.33;1.00;;;;;;;;5103117;27;63539;-76
2022/09/07 04:16:54;;;;;;;;;1.00;0.00;;;;;;;;5104935;27;61754;-75
2022/09/07 04:19:20;;;;;;;;;2.00;0.75;;;;;;;;5105228;27;62122;-76
2022/09/07 04:21:46;;;;;;;;;0.25;0.25;;;;;;;;5104205;27;61837;-76
2022/09/07 04:24:14;;;;;;;;;1.00;1.00;;;;;;;;5102922;27;63831;-76
2022/09/07 04:26:42;;;;;;;;;0.67;0.67;;;;;;;;5103843;27;61818;-76
2022/09/07 04:29:07;;;;;;;;;2.25;1.00;;;;;;;;5104767;27;61802;-76
2022/09/07 04:31:34;;;;;;;;;1.00;0.00;;;;;;;;5105283;27;61869;-76
2022/09/07 04:34:01;;;;;;;;;0.75;0.00;;;;;;;;5102889;27;63603;-76
2022/09/07 04:36:26;;;;;;;;;0.00;0.00;;;;;;;;5103585;27;61963;-76
2022/09/07 04:38:56;;;;;;;;;1.33;0.33;;;;;;;;5103606;27;62507;-75
2022/09/07 04:41:22;;;;;;;;;1.00;1.00;;;;;;;;5104889;27;61828;-76
2022/09/07 04:43:51;;;;;;;;;0.75;0.00;;;;;;;;5102511;27;64611;-76
2022/09/07 04:46:18;;;;;;;;;0.00;0.00;;;;;;;;5103499;27;61932;-76
2022/09/07 04:48:46;;;;;;;;;2.33;0.00;;;;;;;;5104702;27;62248;-76
2022/09/07 04:51:11;;;;;;;;;0.25;0.25;;;;;;;;5103324;27;62215;-76
2022/09/07 04:53:37;;;;;;;;;1.00;1.00;;;;;;;;5102203;27;64770;-76
2022/09/07 04:56:03;;;;;;;;;2.00;0.50;;;;;;;;5104856;27;62379;-76
2022/09/07 04:58:28;;;;;;;;;0.25;0.25;;;;;;;;5103099;27;62009;-75
2022/09/07 05:00:54;;;;;;;;;3.00;0.00;;;;;;;;5104915;27;61745;-73
2022/09/07 05:03:19;;;;;;;;;3.25;0.50;;;;;;;;5102057;27;64939;-75
2022/09/07 05:05:44;;;;;;;;;1.00;1.00;;;;;;;;5101799;27;62260;-74
2022/09/07 05:08:10;;;;;;;;;1.00;1.00;;;;;;;;5102639;27;61960;-75
2022/09/07 05:10:35;;;;;;;;;1.00;1.00;;;;;;;;5103367;27;62034;-75
2022/09/07 05:13:01;;;;;;;;;4.00;0.75;;;;;;;;5103451;27;62126;-75
2022/09/07 05:15:27;;;;;;;;;2.75;0.75;;;;;;;;5104300;27;61702;-75
2022/09/07 05:17:52;;;;;;;;;1.75;0.75;;;;;;;;5102657;27;62010;-75
2022/09/07 05:20:19;;;;;;;;;4.00;0.00;;;;;;;;5102302;27;62001;-76
2022/09/07 05:22:45;;;;;;;;;2.75;1.00;;;;;;;;5103513;27;63018;-75
2022/09/07 05:25:10;;;;;;;;;0.75;0.75;;;;;;;;5102496;27;61837;-75
2022/09/07 05:27:35;;;;;;;;;3.00;0.75;;;;;;;;5103949;27;61925;-76
2022/09/07 05:30:00;;;;;;;;;0.50;0.25;;;;;;;;5102279;27;61967;-75
2022/09/07 05:32:26;;;;;;;;;1.25;1.00;;;;;;;;5101380;27;64931;-76
2022/09/07 05:34:52;;;;;;;;;2.00;2.00;;;;;;;;5098311;27;61844;-74
2022/09/07 05:37:17;;;;;;;;;1.00;1.00;;;;;;;;5083284;27;61955;-75
2022/09/07 05:39:42;;;;;;;;;1.00;1.00;;;;;;;;5085003;27;62047;-74
2022/09/07 05:42:08;;;;;;;;;3.00;1.33;;;;;;;;5100142;27;63977;-75
2022/09/07 05:44:33;;;;;;;;;0.67;0.67;;;;;;;;5102586;27;61750;-76
2022/09/07 05:46:58;;;;;;;;;1.00;1.00;;;;;;;;5100851;27;61784;-76
2022/09/07 05:49:24;;;;;;;;;2.33;0.67;;;;;;;;5101274;27;62186;-76
2022/09/07 05:51:49;;;;;;;;;2.75;1.00;;;;;;;;5101758;27;62924;-75
2022/09/07 05:54:14;;;;;;;;;0.75;0.75;;;;;;;;5102398;27;61788;-76
2022/09/07 05:56:39;;;;;;;;;0.50;0.00;;;;;;;;5101029;27;61959;-75
2022/09/07 05:59:05;;;;;;;;;2.25;1.00;;;;;;;;5101198;27;61919;-75
2022/09/07 06:01:30;;;;;;;;;3.00;1.00;;;;;;;;5100438;27;63653;-75
2022/09/07 06:03:56;;;;;;;;;1.25;1.25;;;;;;;;5102991;27;61761;-75
2022/09/07 06:06:21;;;;;;;;;3.00;2.25;;;;;;;;5103372;27;61977;-75
2022/09/07 06:08:48;;;;;;;;;0.50;0.50;;;;;;;;5102564;27;62077;-75
2022/09/07 06:11:20;;;;;;;;;0.50;0.50;;;;;;;;5102778;27;63363;-75
2022/09/07 06:13:46;;;;;;;;;3.25;1.25;;;;;;;;5102873;27;61968;-75
2022/09/07 06:16:11;;;;;;;;;1.00;0.50;;;;;;;;5103013;27;61861;-74
2022/09/07 06:18:38;;;;;;;;;1.75;1.75;;;;;;;;5101306;27;61874;-74
2022/09/07 06:21:04;;;;;;;;;2.00;1.00;;;;;;;;5100495;27;63090;-75
2022/09/07 06:23:30;;;;;;;;;0.75;0.75;;;;;;;;5091974;27;61781;-75
2022/09/07 06:25:56;;;;;;;;;1.25;1.25;;;;;;;;5082793;28;62076;-75
2022/09/07 06:28:26;;;;;;;;;4.00;1.25;;;;;;;;5082587;27;61816;-75
2022/09/07 06:30:51;;;;;;;;;5.75;1.00;;;;;;;;5080531;28;63645;-75
2022/09/07 06:33:16;;;;;;;;;1.00;1.00;;;;;;;;5082680;28;61908;-75
2022/09/07 06:35:41;;;;;;;;;0.25;0.25;;;;;;;;5082772;28;61806;-75
2022/09/07 06:38:07;;;;;;;;;1.50;0.50;;;;;;;;5082399;28;61979;-75
2022/09/07 06:40:33;;;;;;;;;0.67;0.67;;;;;;;;5081924;27;62891;-74
2022/09/07 06:42:58;;;;;;;;;3.00;1.50;;;;;;;;5080806;28;61765;-74
2022/09/07 06:45:24;;;;;;;;;4.00;0.50;;;;;;;;5080878;28;61806;-74
2022/09/07 06:47:51;;;;;;;;;1.00;0.67;;;;;;;;5081121;28;61855;-74
2022/09/07 06:50:17;;;;;;;;;2.00;1.00;;;;;;;;5080208;28;63607;-74
2022/09/07 06:52:43;;;;;;;;;1.50;1.25;;;;;;;;5081369;28;62525;-74
2022/09/07 06:55:08;;;;;;;;;1.67;0.67;;;;;;;;5080804;28;62852;-74
2022/09/07 06:57:33;;;;;;;;;1.33;1.00;;;;;;;;5097682;27;62172;-75
2022/09/07 06:59:58;;;;;;;;;5.33;2.00;;;;;;;;5100993;27;62823;-75
2022/09/07 07:02:24;;;;;;;;;1.67;1.00;;;;;;;;5100988;27;61909;-74
2022/09/07 07:04:49;;;;;;;;;1.00;1.00;;;;;;;;5102588;27;61745;-75
2022/09/07 07:07:14;;;;;;;;;2.00;1.00;;;;;;;;5101230;27;61920;-77
2022/09/07 07:09:40;;;;;;;;;0.33;0.00;;;;;;;;5099404;27;63895;-75
2022/09/07 07:12:05;;;;;;;;;3.00;0.33;;;;;;;;5100303;27;61859;-74
2022/09/07 07:14:31;;;;;;;;;4.00;1.00;;;;;;;;5094179;27;61832;-74
2022/09/07 07:16:56;;;;;;;;;2.67;1.67;;;;;;;;5090966;27;62116;-75
2022/09/07 07:19:21;;;;;;;;;2.00;1.00;;;;;;;;5102027;27;61891;-74
2022/09/07 07:21:47;;;;;;;;;3.67;0.67;;;;;;;;5102497;27;61948;-75
2022/09/07 07:24:12;;;;;;;;;1.00;1.00;;;;;;;;5102077;27;61875;-74
2022/09/07 07:26:39;;;;;;;;;2.33;0.67;;;;;;;;5100753;27;61946;-75
2022/09/07 07:29:04;;;;;;;;;1.00;1.00;;;;;;;;5099758;27;64572;-75
2022/09/07 07:31:31;;;;;;;;;1.00;1.00;;;;;;;;5104291;27;61855;-74
2022/09/07 07:33:56;;;;;;;;;3.00;0.67;;;;;;;;5105847;27;61795;-74
2022/09/07 07:36:23;;;;;;;;;2.00;1.00;;;;;;;;5104591;27;61749;-74
2022/09/07 07:38:49;;;;;;;;;1.00;1.00;;;;;;;;5105045;27;61871;-75
2022/09/07 07:41:16;;;;;;;;;1.67;1.67;;;;;;;;5105386;27;61867;-75
2022/09/07 07:43:42;;;;;;;;;2.67;2.00;;;;;;;;5105356;27;62178;-75
2022/09/07 07:46:07;;;;;;;;;2.33;2.00;;;;;;;;5105661;27;62412;-74
2022/09/07 07:48:33;;;;;;;;;1.00;1.00;;;;;;;;5103802;27;63648;-74
2022/09/07 07:51:03;;;;;;;;;3.00;2.00;;;;;;;;5105576;27;61804;-74
2022/09/07 07:53:31;;;;;;;;;3.00;1.00;;;;;;;;5103817;27;61940;-74
2022/09/07 07:55:57;;;;;;;;;2.33;0.67;;;;;;;;5105633;27;62074;-74
2022/09/07 07:58:23;;;;;;;;;0.67;0.67;;;;;;;;5103066;27;64232;-74
2022/09/07 08:00:48;;;;;;;;;2.00;1.00;;;;;;;;5103899;27;61954;-74
2022/09/07 08:03:14;;;;;;;;;2.00;1.00;;;;;;;;5105502;27;61963;-74
2022/09/07 08:05:39;;;;;;;;;1.00;1.00;;;;;;;;5106047;27;61781;-75
2022/09/07 08:08:04;;;;;;;;;1.33;0.00;;;;;;;;5104702;27;62002;-74
2022/09/07 08:10:30;;;;;;;;;4.33;0.67;;;;;;;;5105721;27;62254;-74
2022/09/07 08:12:55;;;;;;;;;2.67;1.00;;;;;;;;5103334;27;61712;-74
2022/09/07 08:15:21;;;;;;;;;4.67;1.67;;;;;;;;5100531;27;61780;-74
2022/09/07 08:17:47;;;;;;;;;2.00;1.00;;;;;;;;5131186;27;63654;-74
2022/09/07 08:20:12;;;;;;;;;0.00;0.00;;;;;;;;5103502;27;62102;-74
2022/09/07 08:22:37;;;;;;;;;2.33;2.00;;;;;;;;5103721;27;62031;-75
2022/09/07 08:25:03;;;;;;;;;1.67;0.67;;;;;;;;5104990;27;61932;-74
2022/09/07 08:27:28;;;;;;;;;1.00;1.00;;;;;;;;5103120;27;63677;-74
2022/09/07 08:29:53;;;;;;;;;1.67;1.33;;;;;;;;5103191;27;61849;-74
2022/09/07 08:32:18;;;;;;;;;2.33;0.00;;;;;;;;5103355;27;61767;-75
2022/09/07 08:34:44;;;;;;;;;0.00;0.00;;;;;;;;5105375;27;61690;-74
2022/09/07 08:37:09;;;;;;;;;0.67;0.67;;;;;;;;5104237;27;63053;-74
2022/09/07 08:39:35;;;;;;;;;0.67;0.67;;;;;;;;5105129;27;62029;-75
2022/09/07 08:42:03;;;;;;;;;4.33;1.33;;;;;;;;5102992;27;62201;-76
2022/09/07 08:44:34;;;;;;;;;2.33;1.00;;;;;;;;5104461;27;61721;-73
2022/09/07 08:47:18;;;;;;;;;3.67;2.00;;;;;;;;5102366;27;63713;-74
2022/09/07 08:50:04;;;;;;;;;1.00;1.00;;;;;;;;5104888;27;62043;-74
2022/09/07 08:52:48;;;;;;;;;1.00;1.00;;;;;;;;5099625;27;61807;-74
2022/09/07 08:55:16;;;;;;;;;3.00;0.00;;;;;;;;5104149;27;62325;-75
2022/09/07 08:57:45;;;;;;;;;2.67;1.00;;;;;;;;5103938;27;61855;-75
2022/09/07 09:00:15;;;;;;;;;2.00;1.00;;;;;;;;5102682;27;61782;-75
2022/09/07 09:02:40;;;;;;;;;3.00;2.00;;;;;;;;5104421;27;61706;-75
2022/09/07 09:05:16;;;;;;;;;2.67;0.33;;;;;;;;5104429;27;61700;-75
2022/09/07 09:07:49;;;;;;;;;1.00;1.00;;;;;;;;5103707;27;61873;-73
2022/09/07 09:10:27;;;;;;;;;0.00;0.00;;;;;;;;5103696;27;62464;-74
2022/09/07 09:12:54;;;;;;;;;2.00;1.00;;;;;;;;5104024;27;61906;-74
2022/09/07 09:15:20;;;;;;;;;1.33;1.33;;;;;;;;5103832;27;61822;-73
2022/09/07 09:17:51;;;;;;;;;2.67;0.33;;;;;;;;5102915;27;61911;-76
2022/09/07 09:20:16;;;;;;;;;4.67;1.00;;;;;;;;5104052;27;61862;-77
2022/09/07 09:22:42;;;;;;;;;5.00;2.00;;;;;;;;5103090;27;62125;-74
2022/09/07 09:25:10;;;;;;;;;1.67;1.00;;;;;;;;5102057;27;61952;-74
2022/09/07 09:27:35;;;;;;;;;1.33;1.00;;;;;;;;5102668;27;62002;-74
2022/09/07 09:30:00;;;;;;;;;1.00;0.00;;;;;;;;5101525;27;61887;-74
2022/09/07 09:32:31;;;;;;;;;0.33;0.33;;;;;;;;5104069;27;61780;-74
2022/09/07 09:35:10;;;;;;;;;2.67;1.00;;;;;;;;5102433;27;61718;-74
2022/09/07 09:37:36;;;;;;;;;2.00;2.00;;;;;;;;5101542;27;64840;-74
2022/09/07 09:40:03;;;;;;;;;1.00;0.67;;;;;;;;5101556;27;61898;-74
2022/09/07 09:42:30;;;;;;;;;1.33;1.33;;;;;;;;5101782;27;61918;-74
2022/09/07 09:45:01;;;;;;;;;1.67;0.33;;;;;;;;5103206;27;62004;-74
2022/09/07 09:47:31;;;;;;;;;2.00;1.00;;;;;;;;5101805;27;65022;-74
2022/09/07 09:50:00;;;;;;;;;1.33;0.67;;;;;;;;5103761;27;61767;-74
2022/09/07 09:52:27;;;;;;;;;3.00;2.00;;;;;;;;5100893;27;61811;-74
2022/09/07 09:54:55;;;;;;;;;1.67;1.00;;;;;;;;5102753;27;61967;-74
2022/09/07 09:57:39;;;;;;;;;2.00;2.00;;;;;;;;5102937;27;62088;-74
2022/09/07 10:00:05;;;;;;;;;3.33;2.00;;;;;;;;5100751;27;62065;-74
2022/09/07 10:02:31;;;;;;;;;0.00;0.00;;;;;;;;5102650;27;62132;-74
2022/09/07 10:04:57;;;;;;;;;1.00;0.67;;;;;;;;5102967;27;62011;-74
2022/09/07 10:07:27;;;;;;;;;3.67;1.33;;;;;;;;5099899;27;63717;-75
2022/09/07 10:09:53;;;;;;;;;1.00;1.00;;;;;;;;5101063;27;61966;-74
2022/09/07 10:12:24;;;;;;;;;2.67;2.00;;;;;;;;5102437;27;61841;-74
2022/09/07 10:14:50;;;;;;;;;2.67;0.67;;;;;;;;5101683;27;61787;-74
2022/09/07 10:17:21;;;;;;;;;2.00;0.67;;;;;;;;5099318;27;64182;-74
2022/09/07 10:19:48;;;;;;;;;2.33;1.00;;;;;;;;5101690;27;62047;-74
2022/09/07 10:22:28;;;;;;;;;1.67;0.67;;;;;;;;5101263;27;61831;-73
2022/09/07 10:24:54;;;;;;;;;1.33;1.00;;;;;;;;5100544;27;61791;-73
2022/09/07 10:27:36;;;;;;;;;1.00;1.00;;;;;;;;5099890;27;63712;-74
2022/09/07 10:30:05;;;;;;;;;1.00;1.00;;;;;;;;5100760;27;61964;-74
2022/09/07 10:32:30;;;;;;;;;2.67;1.00;;;;;;;;5100901;27;61933;-75
2022/09/07 10:35:07;;;;;;;;;0.00;0.00;;;;;;;;5102315;27;62163;-75
2022/09/07 10:37:38;;;;;;;;;3.33;1.67;;;;;;;;5101564;27;63100;-75
2022/09/07 10:40:04;;;;;;;;;1.00;1.00;;;;;;;;5102653;27;61781;-74
2022/09/07 10:42:32;;;;;;;;;1.00;1.00;;;;;;;;5102436;27;61773;-77
2022/09/07 10:45:00;;;;;;;;;0.67;0.67;;;;;;;;5102726;27;61761;-74
2022/09/07 10:47:45;;;;;;;;;1.00;0.00;;;;;;;;5102167;27;61903;-74
2022/09/07 10:50:10;;;;;;;;;1.33;0.67;;;;;;;;5100692;27;62002;-74
2022/09/07 10:52:51;;;;;;;;;1.00;0.67;;;;;;;;5099308;27;61906;-76
2022/09/07 10:55:24;;;;;;;;;2.00;0.33;;;;;;;;5101707;27;61824;-74
2022/09/07 10:57:59;;;;;;;;;0.33;0.00;;;;;;;;5101900;27;62947;-73
2022/09/07 11:00:26;;;;;;;;;1.00;1.00;;;;;;;;5102117;27;61920;-73
2022/09/07 11:02:57;;;;;;;;;1.00;1.00;;;;;;;;5102335;27;61892;-72
2022/09/07 11:05:28;;;;;;;;;1.33;1.00;;;;;;;;5104707;27;61717;-74
2022/09/07 11:08:17;;;;;;;;;0.67;0.67;;;;;;;;5103126;27;63955;-74
2022/09/07 11:10:51;;;;;;;;;0.00;0.00;;;;;;;;5092465;27;61899;-72
2022/09/07 11:13:18;;;;;;;;;2.67;0.67;;;;;;;;5101023;27;62155;-74
2022/09/07 11:15:55;;;;;;;;;0.67;0.00;;;;;;;;5103051;27;62021;-74
2022/09/07 11:18:26;;;;;;;;;4.33;1.33;;;;;;;;5102148;27;61868;-73
2022/09/07 11:20:57;;;;;;;;;1.00;0.00;;;;;;;;5103235;27;61936;-74
2022/09/07 11:23:33;;;;;;;;;2.33;0.00;;;;;;;;5103798;27;62069;-75
2022/09/07 11:26:18;;;;;;;;;1.33;1.33;;;;;;;;5097103;27;61859;-75
2022/09/07 11:28:45;;;;;;;;;0.67;0.33;;;;;;;;5099134;27;64901;-75
2022/09/07 11:31:34;;;;;;;;;0.00;0.00;;;;;;;;5102499;27;62288;-75
2022/09/07 11:34:05;;;;;;;;;1.00;1.00;;;;;;;;5112645;27;61810;-76
2022/09/07 11:36:34;;;;;;;;;0.67;0.67;;;;;;;;5102958;27;61918;-74
2022/09/07 11:39:05;;;;;;;;;0.67;0.00;;;;;;;;5102131;27;62012;-74
2022/09/07 11:41:37;;;;;;;;;1.33;0.67;;;;;;;;5101296;27;62095;-74
2022/09/07 11:44:23;;;;;;;;;6.00;1.00;;;;;;;;5100706;27;62040;-75
2022/09/07 11:46:59;;;;;;;;;5.33;1.00;;;;;;;;5102387;27;62172;-74
2022/09/07 11:49:25;;;;;;;;;2.00;1.00;;;;;;;;5099673;27;63695;-74
2022/09/07 11:51:54;;;;;;;;;1.00;1.00;;;;;;;;5101808;27;62279;-74
2022/09/07 11:54:19;;;;;;;;;0.67;0.67;;;;;;;;5101536;27;61866;-75
2022/09/07 11:56:49;;;;;;;;;1.33;0.00;;;;;;;;5100649;27;62155;-74
2022/09/07 11:59:37;;;;;;;;;0.67;0.67;;;;;;;;5101397;27;61946;-74
2022/09/07 12:02:21;;;;;;;;;0.67;0.67;;;;;;;;5101350;27;61943;-75
2022/09/07 12:04:47;;;;;;;;;0.67;0.67;;;;;;;;5099364;27;62212;-75
2022/09/07 12:07:22;;;;;;;;;0.33;0.00;;;;;;;;5102445;27;61927;-75
2022/09/07 12:09:58;;;;;;;;;0.67;0.33;;;;;;;;5102322;27;62258;-75
2022/09/07 12:12:36;;;;;;;;;1.67;0.00;;;;;;;;5102162;27;61928;-75
2022/09/07 12:15:07;;;;;;;;;1.00;1.00;;;;;;;;5099862;27;63290;-78
2022/09/07 12:17:38;;;;;;;;;0.00;0.00;;;;;;;;5100596;27;61875;-79
2022/09/07 12:20:12;;;;;;;;;1.00;0.00;;;;;;;;5096241;27;63354;-77
2022/09/07 12:22:53;;;;;;;;;0.67;0.67;;;;;;;;5099393;27;62007;-77
2022/09/07 12:25:22;;;;;;;;;1.67;0.00;;;;;;;;5100671;27;61923;-77
2022/09/07 12:27:48;;;;;;;;;2.00;0.33;;;;;;;;5098441;27;61954;-78
2022/09/07 12:30:13;;;;;;;;;2.33;0.67;;;;;;;;5097321;27;61871;-77
2022/09/07 12:32:47;;;;;;;;;3.33;1.00;;;;;;;;5103463;27;62056;-77
2022/09/07 12:35:25;;;;;;;;;3.67;1.00;;;;;;;;5104470;27;61875;-77
2022/09/07 12:37:50;;;;;;;;;0.67;0.00;;;;;;;;5103512;27;62043;-77
2022/09/07 12:40:32;;;;;;;;;3.00;1.67;;;;;;;;5100630;27;63653;-77
2022/09/07 12:43:15;;;;;;;;;0.00;0.00;;;;;;;;5100373;27;61969;-77
2022/09/07 12:45:43;;;;;;;;;2.00;2.00;;;;;;;;5101408;27;61830;-77
2022/09/07 12:48:15;;;;;;;;;0.00;0.00;;;;;;;;5100552;27;61840;-76
2022/09/07 12:50:59;;;;;;;;;1.00;1.00;;;;;;;;5098692;27;64696;-77
2022/09/07 12:53:30;;;;;;;;;0.33;0.33;;;;;;;;5099958;27;62107;-78
2022/09/07 12:56:04;;;;;;;;;2.33;0.00;;;;;;;;5100505;27;61871;-76
2022/09/07 12:58:42;;;;;;;;;0.33;0.33;;;;;;;;5100564;27;61986;-77
2022/09/07 13:01:16;;;;;;;;;0.00;0.00;;;;;;;;5099031;27;62857;-78
2022/09/07 13:04:11;;;;;;;;;0.00;0.00;;;;;;;;5099498;27;61749;-77
2022/09/07 13:06:42;;;;;;;;;1.00;0.33;;;;;;;;5105478;27;61839;-77
2022/09/07 13:09:25;;;;;;;;;1.00;0.67;;;;;;;;5103005;27;61883;-77
2022/09/07 13:11:50;;;;;;;;;0.00;0.00;;;;;;;;5099204;27;61919;-77
2022/09/07 13:14:18;;;;;;;;;1.00;1.00;;;;;;;;5098856;27;62480;-77
2022/09/07 13:16:44;;;;;;;;;0.67;0.67;;;;;;;;5098683;27;61836;-76
2022/09/07 13:19:13;;;;;;;;;0.67;0.67;;;;;;;;5098210;27;62187;-76
2022/09/07 13:21:47;;;;;;;;;3.00;0.00;;;;;;;;5097207;27;63292;-76
2022/09/07 13:24:15;;;;;;;;;2.33;1.33;;;;;;;;5098088;27;61821;-77
2022/09/07 13:26:57;;;;;;;;;2.33;1.33;;;;;;;;5100168;27;62234;-77
2022/09/07 13:29:28;;;;;;;;;0.33;0.33;;;;;;;;5097678;27;62250;-77
2022/09/07 13:32:03;;;;;;;;;2.33;0.67;;;;;;;;5099729;27;64322;-74
2022/09/07 13:34:35;;;;;;;;;2.00;1.00;;;;;;;;5101445;27;61912;-74
2022/09/07 13:37:02;;;;;;;;;2.67;0.67;;;;;;;;5100599;27;61848;-73
2022/09/07 13:39:27;;;;;;;;;0.00;0.00;;;;;;;;5100749;27;62504;-73
2022/09/07 13:41:58;;;;;;;;;1.67;1.67;;;;;;;;5098905;27;63555;-74
2022/09/07 13:44:26;;;;;;;;;1.00;1.00;;;;;;;;5100123;27;61978;-74
2022/09/07 13:46:54;;;;;;;;;6.00;1.00;;;;;;;;5098148;27;61921;-74
2022/09/07 13:49:27;;;;;;;;;1.33;1.33;;;;;;;;5100716;27;62199;-74
2022/09/07 13:52:03;;;;;;;;;1.67;0.67;;;;;;;;5099363;27;64048;-74
2022/09/07 13:54:38;;;;;;;;;1.33;0.00;;;;;;;;5097561;27;61900;-74
2022/09/07 13:57:09;;;;;;;;;1.00;1.00;;;;;;;;5100534;27;61964;-74
2022/09/07 13:59:35;;;;;;;;;2.00;1.00;;;;;;;;5101277;27;61916;-74
2022/09/07 14:02:00;;;;;;;;;3.00;0.00;;;;;;;;5101227;27;62004;-74
2022/09/07 14:04:28;;;;;;;;;0.00;0.00;;;;;;;;5091035;27;62338;-75
2022/09/07 14:07:07;;;;;;;;;0.00;0.00;;;;;;;;5101629;27;61823;-74
2022/09/07 14:09:33;;;;;;;;;3.00;1.00;;;;;;;;5102270;27;62180;-75
2022/09/07 14:11:59;;;;;;;;;0.33;0.00;;;;;;;;5102596;27;63024;-75
2022/09/07 14:14:28;;;;;;;;;1.00;1.00;;;;;;;;5102666;27;61937;-74
2022/09/07 14:16:53;;;;;;;;;0.00;0.00;;;;;;;;5100580;27;62114;-74
2022/09/07 14:19:24;;;;;;;;;0.00;0.00;;;;;;;;5101808;27;62077;-75
2022/09/07 14:21:54;;;;;;;;;2.00;0.00;;;;;;;;5101037;27;63504;-76
2022/09/07 14:24:39;;;;;;;;;1.00;0.00;;;;;;;;5101706;27;61764;-75
2022/09/07 14:27:24;;;;;;;;;0.33;0.33;;;;;;;;5101090;27;61788;-76
2022/09/07 14:29:51;;;;;;;;;0.00;0.00;;;;;;;;5096812;27;61812;-75
2022/09/07 14:32:21;;;;;;;;;2.00;1.00;;;;;;;;5099589;27;63733;-75
2022/09/07 14:34:50;;;;;;;;;0.67;0.67;;;;;;;;5098279;27;61907;-75
2022/09/07 14:37:16;;;;;;;;;0.00;0.00;;;;;;;;5100936;27;61939;-75
2022/09/07 14:39:43;;;;;;;;;2.00;1.00;;;;;;;;5101161;27;62319;-75
2022/09/07 14:42:14;;;;;;;;;1.67;0.00;;;;;;;;5100280;27;63735;-75
2022/09/07 14:44:41;;;;;;;;;1.00;0.33;;;;;;;;5101030;27;61842;-76
2022/09/07 14:47:26;;;;;;;;;3.00;0.67;;;;;;;;5100322;27;62291;-75
2022/09/07 14:49:53;;;;;;;;;0.33;0.33;;;;;;;;5100395;27;62188;-76
2022/09/07 14:52:23;;;;;;;;;0.00;0.00;;;;;;;;5100812;27;61911;-75
2022/09/07 14:54:53;;;;;;;;;0.00;0.00;;;;;;;;5097798;27;62049;-76